Terminal Aerodrome Forecast
Issued by NWS

Current Version | Previous Version | Graphics & Text | Print | Product List | Glossary On
Versions: 1 2 3 4 5 6 7 8 9 10 11 12 13 14 15 16 17 18 19 20 21 22 23 24 25 26 27 28 29 30 31 32 33 34 35 36
000
FTUS41 KRNK 182320
TAFLWB
TAF
KLWB 182320Z 1900/1924 00000KT 3SM -RADZ SCT015 OVC025
      TEMPO 1900/1902 2SM -DZ OVC015
     FM190200 29005KT 1/2SM -DZ FG OVC001
     FM191400 30007KT P6SM BKN015=

USA.gov is the U.S. government's official web portal to all federal, state and local government web resources and services.